sensor_id;sensor_type;location;lat;lon;timestamp;pressure;altitude;pressure_sealevel;temperature;humidity
10392;BME280;5242;49.244;6.774;2023-03-03T00:05:31;99894.34;;;-1.15;nan
10392;BME280;5242;49.244;6.774;2023-03-03T00:13:25;99893.81;;;-1.22;nan
10392;BME280;5242;49.244;6.774;2023-03-03T00:21:40;99891.66;;;-1.25;nan
10392;BME280;5242;49.244;6.774;2023-03-03T00:29:35;99892.16;;;-1.38;nan
10392;BME280;5242;49.244;6.774;2023-03-03T00:37:33;99899.09;;;-1.52;nan
10392;BME280;5242;49.244;6.774;2023-03-03T00:45:46;99905.50;;;-1.59;nan
10392;BME280;5242;49.244;6.774;2023-03-03T00:53:38;99899.66;;;-1.50;nan
10392;BME280;5242;49.244;6.774;2023-03-03T01:01:30;99901.25;;;-1.49;nan
10392;BME280;5242;49.244;6.774;2023-03-03T01:09:22;99899.66;;;-1.56;nan
10392;BME280;5242;49.244;6.774;2023-03-03T01:17:14;99898.53;;;-1.70;nan
10392;BME280;5242;49.244;6.774;2023-03-03T01:25:07;99901.13;;;-1.95;nan
10392;BME280;5242;49.244;6.774;2023-03-03T01:32:59;99908.53;;;-2.08;nan
10392;BME280;5242;49.244;6.774;2023-03-03T01:41:01;99904.25;;;-2.14;nan
10392;BME280;5242;49.244;6.774;2023-03-03T01:48:58;99900.47;;;-2.18;nan
10392;BME280;5242;49.244;6.774;2023-03-03T01:56:57;99902.56;;;-2.25;nan
10392;BME280;5242;49.244;6.774;2023-03-03T02:04:50;99886.28;;;-2.29;nan
10392;BME280;5242;49.244;6.774;2023-03-03T02:12:43;99893.16;;;-2.38;nan
10392;BME280;5242;49.244;6.774;2023-03-03T02:20:54;99883.31;;;-2.43;nan
10392;BME280;5242;49.244;6.774;2023-03-03T02:28:46;99891.34;;;-2.37;nan
10392;BME280;5242;49.244;6.774;2023-03-03T02:36:38;99889.69;;;-2.44;nan
10392;BME280;5242;49.244;6.774;2023-03-03T02:44:31;99892.31;;;-2.49;nan
10392;BME280;5242;49.244;6.774;2023-03-03T02:52:23;99895.25;;;-2.50;nan
10392;BME280;5242;49.244;6.774;2023-03-03T03:00:15;99893.88;;;-2.58;nan
10392;BME280;5242;49.244;6.774;2023-03-03T03:08:07;99891.41;;;-2.70;nan
10392;BME280;5242;49.244;6.774;2023-03-03T03:15:59;99893.22;;;-2.75;nan
10392;BME280;5242;49.244;6.774;2023-03-03T03:23:51;99907.84;;;-2.83;nan
10392;BME280;5242;49.244;6.774;2023-03-03T03:31:43;99897.38;;;-2.90;nan
10392;BME280;5242;49.244;6.774;2023-03-03T03:39:35;99892.84;;;-2.89;nan
10392;BME280;5242;49.244;6.774;2023-03-03T03:47:27;99900.00;;;-2.95;nan
10392;BME280;5242;49.244;6.774;2023-03-03T03:55:18;99901.59;;;-2.99;nan
10392;BME280;5242;49.244;6.774;2023-03-03T04:03:11;99896.22;;;-3.04;nan
10392;BME280;5242;49.244;6.774;2023-03-03T04:11:05;99901.66;;;-3.21;nan
10392;BME280;5242;49.244;6.774;2023-03-03T04:18:57;99906.09;;;-3.32;nan
10392;BME280;5242;49.244;6.774;2023-03-03T04:26:49;99905.50;;;-3.39;nan
10392;BME280;5242;49.244;6.774;2023-03-03T04:34:41;99906.00;;;-3.42;nan
10392;BME280;5242;49.244;6.774;2023-03-03T04:42:33;99917.41;;;-3.46;nan
10392;BME280;5242;49.244;6.774;2023-03-03T04:50:26;99927.22;;;-3.52;nan
10392;BME280;5242;49.244;6.774;2023-03-03T04:58:18;99937.81;;;-3.57;nan
10392;BME280;5242;49.244;6.774;2023-03-03T05:06:10;99934.13;;;-3.51;nan
10392;BME280;5242;49.244;6.774;2023-03-03T05:14:02;99940.59;;;-3.47;nan
10392;BME280;5242;49.244;6.774;2023-03-03T05:21:54;99937.97;;;-3.42;nan
10392;BME280;5242;49.244;6.774;2023-03-03T05:29:46;99946.19;;;-3.43;nan
10392;BME280;5242;49.244;6.774;2023-03-03T05:37:37;99953.84;;;-3.52;nan
10392;BME280;5242;49.244;6.774;2023-03-03T05:45:33;99952.66;;;-3.61;nan
10392;BME280;5242;49.244;6.774;2023-03-03T05:53:27;99962.47;;;-3.67;nan
10392;BME280;5242;49.244;6.774;2023-03-03T06:01:19;99965.84;;;-3.72;nan
10392;BME280;5242;49.244;6.774;2023-03-03T06:09:11;99975.78;;;-3.67;nan
10392;BME280;5242;49.244;6.774;2023-03-03T06:17:03;99983.06;;;-3.57;nan
10392;BME280;5242;49.244;6.774;2023-03-03T06:24:54;99996.44;;;-3.52;nan
10392;BME280;5242;49.244;6.774;2023-03-03T06:32:46;100011.41;;;-3.46;nan
10392;BME280;5242;49.244;6.774;2023-03-03T06:40:38;100009.63;;;-3.40;nan
10392;BME280;5242;49.244;6.774;2023-03-03T06:48:31;100018.16;;;-3.16;nan
10392;BME280;5242;49.244;6.774;2023-03-03T06:56:24;100021.81;;;-2.68;nan
10392;BME280;5242;49.244;6.774;2023-03-03T07:12:14;100041.28;;;-1.40;nan
10392;BME280;5242;49.244;6.774;2023-03-03T07:20:35;100037.44;;;-0.61;nan
10392;BME280;5242;49.244;6.774;2023-03-03T07:28:31;100040.53;;;0.43;nan
10392;BME280;5242;49.244;6.774;2023-03-03T07:36:28;100032.09;;;2.61;nan
10392;BME280;5242;49.244;6.774;2023-03-03T07:44:21;100041.50;;;5.24;nan
10392;BME280;5242;49.244;6.774;2023-03-03T07:52:28;100034.72;;;7.09;nan
10392;BME280;5242;49.244;6.774;2023-03-03T08:08:30;100043.44;;;9.20;nan
10392;BME280;5242;49.244;6.774;2023-03-03T08:16:29;100041.31;;;10.38;nan
10392;BME280;5242;49.244;6.774;2023-03-03T08:24:25;100036.03;;;11.47;nan
10392;BME280;5242;49.244;6.774;2023-03-03T08:32:18;100047.41;;;11.77;nan
10392;BME280;5242;49.244;6.774;2023-03-03T08:40:10;100045.56;;;12.41;nan
10392;BME280;5242;49.244;6.774;2023-03-03T08:48:02;100033.06;;;13.11;nan
10392;BME280;5242;49.244;6.774;2023-03-03T08:55:56;100040.25;;;13.35;nan
10392;BME280;5242;49.244;6.774;2023-03-03T09:03:48;100025.34;;;14.40;nan
10392;BME280;5242;49.244;6.774;2023-03-03T09:11:40;100030.09;;;15.57;nan
10392;BME280;5242;49.244;6.774;2023-03-03T09:19:35;100039.09;;;16.28;nan
10392;BME280;5242;49.244;6.774;2023-03-03T09:27:33;100034.31;;;16.73;nan
10392;BME280;5242;49.244;6.774;2023-03-03T09:43:26;100048.28;;;18.25;nan
10392;BME280;5242;49.244;6.774;2023-03-03T09:51:31;100049.84;;;18.87;nan
10392;BME280;5242;49.244;6.774;2023-03-03T10:08:17;100046.22;;;19.12;nan
10392;BME280;5242;49.244;6.774;2023-03-03T10:24:28;100053.16;;;19.67;nan
10392;BME280;5242;49.244;6.774;2023-03-03T10:32:31;100067.75;;;19.67;nan
10392;BME280;5242;49.244;6.774;2023-03-03T10:40:32;100069.31;;;19.68;nan
10392;BME280;5242;49.244;6.774;2023-03-03T10:56:32;100032.25;;;20.22;nan
10392;BME280;5242;49.244;6.774;2023-03-03T11:05:03;100038.00;;;19.93;nan
10392;BME280;5242;49.244;6.774;2023-03-03T11:21:46;100027.22;;;20.61;nan
10392;BME280;5242;49.244;6.774;2023-03-03T11:29:45;100027.00;;;19.82;nan
10392;BME280;5242;49.244;6.774;2023-03-03T11:38:24;100029.91;;;19.50;nan
10392;BME280;5242;49.244;6.774;2023-03-03T11:46:17;100023.69;;;20.57;nan
10392;BME280;5242;49.244;6.774;2023-03-03T11:55:26;100008.53;;;20.24;nan
10392;BME280;5242;49.244;6.774;2023-03-03T12:11:26;99991.06;;;20.76;nan
10392;BME280;5242;49.244;6.774;2023-03-03T12:35:46;99970.00;;;20.48;nan
10392;BME280;5242;49.244;6.774;2023-03-03T13:16:11;99963.66;;;15.07;nan
10392;BME280;5242;49.244;6.774;2023-03-03T13:32:31;99956.56;;;15.06;nan
10392;BME280;5242;49.244;6.774;2023-03-03T13:40:42;99955.97;;;17.19;nan
10392;BME280;5242;49.244;6.774;2023-03-03T14:12:49;99933.50;;;14.23;nan
10392;BME280;5242;49.244;6.774;2023-03-03T14:28:40;99921.78;;;12.21;nan
10392;BME280;5242;49.244;6.774;2023-03-03T14:36:36;99912.25;;;11.51;nan
10392;BME280;5242;49.244;6.774;2023-03-03T14:44:34;99923.84;;;11.32;nan
10392;BME280;5242;49.244;6.774;2023-03-03T14:52:32;99922.91;;;11.41;nan
10392;BME280;5242;49.244;6.774;2023-03-03T15:08:35;99916.56;;;11.08;nan
10392;BME280;5242;49.244;6.774;2023-03-03T15:16:30;99903.88;;;11.00;nan
10392;BME280;5242;49.244;6.774;2023-03-03T15:24:29;99900.63;;;10.95;nan
10392;BME280;5242;49.244;6.774;2023-03-03T15:32:38;99898.34;;;10.97;nan
10392;BME280;5242;49.244;6.774;2023-03-03T15:41:12;99905.06;;;10.59;nan
10392;BME280;5242;49.244;6.774;2023-03-03T15:57:19;99901.69;;;10.37;nan
10392;BME280;5242;49.244;6.774;2023-03-03T16:05:21;99913.81;;;10.28;nan
10392;BME280;5242;49.244;6.774;2023-03-03T16:29:36;99925.38;;;9.88;nan
10392;BME280;5242;49.244;6.774;2023-03-03T16:37:36;99935.78;;;9.73;nan
10392;BME280;5242;49.244;6.774;2023-03-03T16:45:35;99950.81;;;9.58;nan
10392;BME280;5242;49.244;6.774;2023-03-03T17:10:26;99985.13;;;8.97;nan
10392;BME280;5242;49.244;6.774;2023-03-03T17:18:50;99991.19;;;8.52;nan
10392;BME280;5242;49.244;6.774;2023-03-03T17:26:56;100003.47;;;8.11;nan
10392;BME280;5242;49.244;6.774;2023-03-03T18:15:45;100064.22;;;5.45;nan
10392;BME280;5242;49.244;6.774;2023-03-03T18:32:18;100091.38;;;4.76;nan
10392;BME280;5242;49.244;6.774;2023-03-03T18:48:09;100104.16;;;4.71;nan
10392;BME280;5242;49.244;6.774;2023-03-03T18:56:02;100113.44;;;4.65;nan
10392;BME280;5242;49.244;6.774;2023-03-03T19:04:11;100119.81;;;4.27;nan
10392;BME280;5242;49.244;6.774;2023-03-03T19:12:09;100135.13;;;3.99;nan
10392;BME280;5242;49.244;6.774;2023-03-03T19:20:16;100145.31;;;4.02;nan
10392;BME280;5242;49.244;6.774;2023-03-03T19:28:25;100149.41;;;3.81;nan
10392;BME280;5242;49.244;6.774;2023-03-03T19:36:35;100157.00;;;3.41;nan
10392;BME280;5242;49.244;6.774;2023-03-03T19:44:40;100168.63;;;3.17;nan
10392;BME280;5242;49.244;6.774;2023-03-03T19:52:42;100173.19;;;2.93;nan
10392;BME280;5242;49.244;6.774;2023-03-03T20:08:43;100190.81;;;2.56;nan
10392;BME280;5242;49.244;6.774;2023-03-03T20:16:40;100201.19;;;2.38;nan
10392;BME280;5242;49.244;6.774;2023-03-03T20:24:41;100212.63;;;2.20;nan
10392;BME280;5242;49.244;6.774;2023-03-03T20:40:58;100227.38;;;1.83;nan
10392;BME280;5242;49.244;6.774;2023-03-03T21:05:29;100246.91;;;1.49;nan
10392;BME280;5242;49.244;6.774;2023-03-03T21:13:25;100252.91;;;1.21;nan
10392;BME280;5242;49.244;6.774;2023-03-03T21:21:17;100255.66;;;1.05;nan
10392;BME280;5242;49.244;6.774;2023-03-03T21:37:45;100258.38;;;0.75;nan
10392;BME280;5242;49.244;6.774;2023-03-03T21:45:40;100249.81;;;0.68;nan
10392;BME280;5242;49.244;6.774;2023-03-03T21:53:32;100258.41;;;0.59;nan
10392;BME280;5242;49.244;6.774;2023-03-03T22:01:25;100250.34;;;0.49;nan
10392;BME280;5242;49.244;6.774;2023-03-03T22:09:17;100252.50;;;0.42;nan
10392;BME280;5242;49.244;6.774;2023-03-03T22:17:09;100261.88;;;0.34;nan
10392;BME280;5242;49.244;6.774;2023-03-03T22:25:01;100266.69;;;0.22;nan
10392;BME280;5242;49.244;6.774;2023-03-03T22:32:53;100268.78;;;0.05;nan
10392;BME280;5242;49.244;6.774;2023-03-03T22:40:45;100270.41;;;-0.05;nan
10392;BME280;5242;49.244;6.774;2023-03-03T22:48:37;100269.31;;;-0.14;nan
10392;BME280;5242;49.244;6.774;2023-03-03T22:56:29;100268.47;;;-0.30;nan
10392;BME280;5242;49.244;6.774;2023-03-03T23:04:21;100271.63;;;-0.48;nan
10392;BME280;5242;49.244;6.774;2023-03-03T23:12:12;100280.66;;;-0.59;nan
10392;BME280;5242;49.244;6.774;2023-03-03T23:20:05;100295.53;;;-0.84;nan
10392;BME280;5242;49.244;6.774;2023-03-03T23:27:57;100301.38;;;-0.87;nan
10392;BME280;5242;49.244;6.774;2023-03-03T23:35:49;100301.00;;;-1.06;nan
10392;BME280;5242;49.244;6.774;2023-03-03T23:43:40;100306.84;;;-1.09;nan
10392;BME280;5242;49.244;6.774;2023-03-03T23:51:33;100321.00;;;-1.14;nan
10392;BME280;5242;49.244;6.774;2023-03-03T23:59:25;100321.00;;;-1.14;nan
